Time;durP1;ratioP1;P1;durP2;ratioP2;P2;SDS_P1;SDS_P2;PMS_P1;PMS_P2;Temp;Humidity;BMP_temperature;BMP_pressure;BME280_temperature;BME280_humidity;BME280_pressure;Samples;Min_cycle;Max_cycle;Signal;HPM_P1;HPM_P2
2023/01/06 00:02:02;;;;;;;;;3.00;3.00;;;;;-147.17;100.00;-15917.19;5073186;28;51647;-65
2023/01/06 00:04:28;;;;;;;;;1.00;1.00;;;;;-147.17;100.00;-15917.19;5059829;28;51003;-65
2023/01/06 00:06:53;;;;;;;;;1.00;1.00;;;;;-147.17;100.00;-15917.19;5073920;28;51990;-65
2023/01/06 00:09:18;;;;;;;;;1.00;1.00;;;;;-147.17;100.00;-15917.19;5074651;27;51005;-61
2023/01/06 00:11:44;;;;;;;;;1.00;1.00;;;;;-147.17;100.00;-15917.19;5062889;27;52019;-64
2023/01/06 00:14:09;;;;;;;;;1.00;1.00;;;;;-147.17;100.00;-15917.19;5067302;27;51358;-64
2023/01/06 00:16:35;;;;;;;;;1.00;1.00;;;;;-147.17;100.00;-15917.19;5047957;28;51097;-65
2023/01/06 00:19:00;;;;;;;;;2.00;2.00;;;;;-147.17;100.00;-15917.19;5064082;27;50990;-68
2023/01/06 00:21:26;;;;;;;;;0.33;0.00;;;;;-147.17;100.00;-15917.19;5050358;27;51161;-65
2023/01/06 00:23:52;;;;;;;;;2.33;2.00;;;;;-147.17;100.00;-15917.19;5068507;27;51217;-65
2023/01/06 00:26:18;;;;;;;;;2.67;1.00;;;;;-147.17;100.00;-15917.19;5070837;28;51787;-65
2023/01/06 00:28:43;;;;;;;;;1.00;1.00;;;;;-147.17;100.00;-15917.19;5065521;27;50940;-65
2023/01/06 00:31:12;;;;;;;;;0.00;0.00;;;;;-147.17;100.00;-15917.19;5073467;27;51190;-63
2023/01/06 00:33:37;;;;;;;;;1.00;1.00;;;;;-147.17;100.00;-15917.19;5060562;28;50903;-64
2023/01/06 00:36:04;;;;;;;;;2.00;1.00;;;;;-147.17;100.00;-15917.19;5071205;28;53112;-65
2023/01/06 00:38:29;;;;;;;;;0.00;0.00;;;;;-147.17;100.00;-15917.19;5051533;28;51078;-66
2023/01/06 00:40:55;;;;;;;;;2.00;1.00;;;;;-147.17;100.00;-15917.19;5073869;27;50954;-65
2023/01/06 00:43:21;;;;;;;;;1.33;1.00;;;;;-147.17;100.00;-15917.19;5065394;28;51016;-65
2023/01/06 00:45:46;;;;;;;;;1.00;0.33;;;;;-147.17;100.00;-15917.19;5052122;28;50952;-67
2023/01/06 00:48:12;;;;;;;;;1.00;1.00;;;;;-147.17;100.00;-15917.19;5071551;28;51085;-65
2023/01/06 00:50:37;;;;;;;;;1.00;1.00;;;;;-147.17;100.00;-15917.19;5061320;28;51081;-66
2023/01/06 00:53:03;;;;;;;;;1.00;1.00;;;;;-147.17;100.00;-15917.19;5057878;28;50923;-65
2023/01/06 00:55:28;;;;;;;;;1.67;1.00;;;;;-147.17;100.00;-15917.19;5067480;28;51140;-66
2023/01/06 00:57:54;;;;;;;;;1.00;1.00;;;;;-147.17;100.00;-15917.19;5073877;27;50920;-65
2023/01/06 01:00:20;;;;;;;;;0.33;0.33;;;;;-147.17;100.00;-15917.19;5072202;27;50903;-66
2023/01/06 01:02:45;;;;;;;;;1.00;1.00;;;;;-147.17;100.00;-15917.19;5061632;28;50899;-64
2023/01/06 01:05:11;;;;;;;;;0.00;0.00;;;;;-147.17;100.00;-15917.19;5066084;27;51037;-66
2023/01/06 01:07:36;;;;;;;;;1.00;1.00;;;;;-147.17;100.00;-15917.19;5057711;28;51565;-63
2023/01/06 01:10:02;;;;;;;;;1.67;1.00;;;;;-147.17;100.00;-15917.19;5067418;28;51166;-64
2023/01/06 01:12:28;;;;;;;;;2.00;1.00;;;;;-147.17;100.00;-15917.19;5051411;28;51423;-63
2023/01/06 01:14:53;;;;;;;;;1.00;1.00;;;;;-147.17;100.00;-15917.19;5073467;27;51922;-63
2023/01/06 01:17:24;;;;;;;;;1.00;1.00;;;;;-147.17;100.00;-15917.19;5073843;27;51022;-63
2023/01/06 01:19:53;;;;;;;;;1.00;1.00;;;;;-147.17;100.00;-15917.19;5072447;28;51009;-63
2023/01/06 01:22:19;;;;;;;;;0.00;0.00;;;;;-147.17;100.00;-15917.19;5063046;27;51045;-63
2023/01/06 01:24:44;;;;;;;;;1.00;1.00;;;;;-147.17;100.00;-15917.19;5056522;28;52375;-63
2023/01/06 01:27:10;;;;;;;;;1.00;1.00;;;;;-147.17;100.00;-15917.19;5059643;28;51014;-63
2023/01/06 01:29:35;;;;;;;;;1.00;0.00;;;;;-147.17;100.00;-15917.19;5066646;28;51121;-64
2023/01/06 01:32:00;;;;;;;;;1.33;1.00;;;;;-147.17;100.00;-15917.19;5056975;28;51371;-64
2023/01/06 01:34:29;;;;;;;;;0.00;0.00;;;;;-147.17;100.00;-15917.19;5066642;28;51502;-64
2023/01/06 01:36:55;;;;;;;;;1.00;0.33;;;;;-147.17;100.00;-15917.19;5053798;28;51002;-62
2023/01/06 01:39:23;;;;;;;;;0.00;0.00;;;;;-147.17;100.00;-15917.19;5068352;28;50990;-63
2023/01/06 01:41:49;;;;;;;;;1.00;1.00;;;;;-147.17;100.00;-15917.19;5048183;28;51153;-63
2023/01/06 01:44:53;;;;;;;;;0.00;0.00;;;;;-147.17;100.00;-15917.19;5057898;28;52035;-62
2023/01/06 01:47:35;;;;;;;;;1.00;1.00;;;;;-147.17;100.00;-15917.19;5060724;28;51049;-63
2023/01/06 01:50:27;;;;;;;;;0.67;0.33;;;;;-147.17;100.00;-15917.19;5065833;27;51076;-64
2023/01/06 01:52:57;;;;;;;;;0.00;0.00;;;;;-147.17;100.00;-15917.19;5067025;27;51190;-62
2023/01/06 01:55:26;;;;;;;;;0.00;0.00;;;;;-147.17;100.00;-15917.19;5060564;28;51952;-63
2023/01/06 01:58:03;;;;;;;;;1.00;1.00;;;;;-147.17;100.00;-15917.19;5058969;28;51082;-64
2023/01/06 02:00:29;;;;;;;;;0.00;0.00;;;;;-147.17;100.00;-15917.19;5061971;28;50995;-64
2023/01/06 02:02:55;;;;;;;;;0.00;0.00;;;;;-147.17;100.00;-15917.19;5063800;27;50901;-62
2023/01/06 02:05:24;;;;;;;;;0.00;0.00;;;;;-147.17;100.00;-15917.19;5072698;27;51876;-62
2023/01/06 02:07:50;;;;;;;;;0.00;0.00;;;;;-147.17;100.00;-15917.19;5072892;27;51038;-63
2023/01/06 02:10:19;;;;;;;;;0.00;0.00;;;;;-147.17;100.00;-15917.19;5066236;27;51222;-63
2023/01/06 02:12:48;;;;;;;;;0.00;0.00;;;;;-147.17;100.00;-15917.19;5088679;27;51149;-62
2023/01/06 02:15:14;;;;;;;;;0.00;0.00;;;;;-147.17;100.00;-15917.19;5072696;27;51699;-62
2023/01/06 02:17:45;;;;;;;;;0.00;0.00;;;;;-147.17;100.00;-15917.19;5073149;27;51079;-63
2023/01/06 02:20:32;;;;;;;;;1.00;1.00;;;;;-147.17;100.00;-15917.19;5049427;27;51105;-62
2023/01/06 02:23:26;;;;;;;;;0.00;0.00;;;;;-147.17;100.00;-15917.19;5050262;27;51267;-63
2023/01/06 02:26:29;;;;;;;;;0.00;0.00;;;;;-147.17;100.00;-15917.19;5062686;28;51335;-62
2023/01/06 02:29:15;;;;;;;;;0.00;0.00;;;;;-147.17;100.00;-15917.19;5036612;28;51185;-62
2023/01/06 02:31:59;;;;;;;;;0.00;0.00;;;;;-147.17;100.00;-15917.19;5056428;28;51169;-62
2023/01/06 02:34:25;;;;;;;;;0.00;0.00;;;;;-147.17;100.00;-15917.19;5057421;28;50991;-63
2023/01/06 02:37:04;;;;;;;;;0.00;0.00;;;;;-147.17;100.00;-15917.19;5066526;28;51853;-62
2023/01/06 02:39:59;;;;;;;;;0.00;0.00;;;;;-147.17;100.00;-15917.19;5071125;28;51120;-63
2023/01/06 02:42:52;;;;;;;;;0.00;0.00;;;;;-147.17;100.00;-15917.19;5058776;28;51193;-62
2023/01/06 02:45:24;;;;;;;;;0.00;0.00;;;;;-147.17;100.00;-15917.19;5042721;28;51198;-62
2023/01/06 02:48:07;;;;;;;;;0.00;0.00;;;;;-147.17;100.00;-15917.19;5069806;28;51898;-62
2023/01/06 02:50:58;;;;;;;;;0.67;0.00;;;;;-147.17;100.00;-15917.19;5072183;28;51074;-62
2023/01/06 02:53:49;;;;;;;;;0.00;0.00;;;;;-147.17;100.00;-15917.19;5051562;28;51165;-63
2023/01/06 02:56:15;;;;;;;;;1.00;1.00;;;;;-147.17;100.00;-15917.19;5030275;28;50988;-62
2023/01/06 02:59:28;;;;;;;;;0.00;0.00;;;;;-147.17;100.00;-15917.19;5075093;27;51116;-62
2023/01/06 03:01:57;;;;;;;;;0.00;0.00;;;;;-147.17;100.00;-15917.19;5072655;28;50985;-62
2023/01/06 03:04:30;;;;;;;;;0.00;0.00;;;;;-147.17;100.00;-15917.19;5071596;27;51108;-62
2023/01/06 03:07:01;;;;;;;;;0.00;0.00;;;;;-147.17;100.00;-15917.19;5071043;28;51279;-63
2023/01/06 03:09:32;;;;;;;;;0.00;0.00;;;;;-147.17;100.00;-15917.19;5074079;27;52966;-63
2023/01/06 03:12:00;;;;;;;;;0.00;0.00;;;;;-147.17;100.00;-15917.19;5057324;28;51115;-64
2023/01/06 03:14:37;;;;;;;;;0.00;0.00;;;;;-147.17;100.00;-15917.19;5075826;27;51074;-62
2023/01/06 03:17:03;;;;;;;;;0.00;0.00;;;;;-147.17;100.00;-15917.19;5075926;27;51249;-65
2023/01/06 03:19:29;;;;;;;;;0.00;0.00;;;;;-147.17;100.00;-15917.19;5064606;27;51899;-62
2023/01/06 03:21:56;;;;;;;;;0.00;0.00;;;;;-147.17;100.00;-15917.19;5058788;28;50905;-62
2023/01/06 03:24:22;;;;;;;;;0.00;0.00;;;;;-147.17;100.00;-15917.19;5075771;27;51158;-63
2023/01/06 03:26:49;;;;;;;;;0.00;0.00;;;;;-147.17;100.00;-15917.19;5067290;27;51061;-63
2023/01/06 03:29:17;;;;;;;;;0.00;0.00;;;;;-147.17;100.00;-15917.19;5059487;28;51109;-64
2023/01/06 03:32:02;;;;;;;;;0.00;0.00;;;;;-147.17;100.00;-15917.19;5069746;27;50996;-63
2023/01/06 03:35:01;;;;;;;;;0.00;0.00;;;;;-147.17;100.00;-15917.19;5063164;28;51165;-63
2023/01/06 03:37:51;;;;;;;;;1.00;1.00;;;;;-147.17;100.00;-15917.19;5073825;27;51172;-63
2023/01/06 03:40:41;;;;;;;;;1.00;0.67;;;;;-147.17;100.00;-15917.19;5062001;28;51882;-63
2023/01/06 03:43:28;;;;;;;;;1.00;0.00;;;;;-147.17;100.00;-15917.19;5088062;27;50969;-64
2023/01/06 03:45:56;;;;;;;;;1.00;1.00;;;;;-147.17;100.00;-15917.19;5070146;28;51023;-63
2023/01/06 03:48:54;;;;;;;;;1.00;0.00;;;;;-147.17;100.00;-15917.19;5075543;28;51152;-63
2023/01/06 03:51:51;;;;;;;;;1.00;0.00;;;;;-147.17;100.00;-15917.19;5062672;28;51878;-63
2023/01/06 03:54:17;;;;;;;;;1.00;1.00;;;;;-147.17;100.00;-15917.19;5068863;27;51199;-63
2023/01/06 03:56:50;;;;;;;;;0.00;0.00;;;;;-147.17;100.00;-15917.19;5055445;28;51042;-63
2023/01/06 03:59:26;;;;;;;;;0.00;0.00;;;;;-147.17;100.00;-15917.19;5072845;28;50947;-64
2023/01/06 04:01:51;;;;;;;;;1.00;0.00;;;;;-147.17;100.00;-15917.19;5044121;27;51132;-63
2023/01/06 04:04:18;;;;;;;;;0.00;0.00;;;;;-147.17;100.00;-15917.19;5073485;28;51063;-63
2023/01/06 04:06:44;;;;;;;;;0.00;0.00;;;;;-147.17;100.00;-15917.19;5074935;27;51201;-63
2023/01/06 04:09:09;;;;;;;;;1.00;0.00;;;;;-147.17;100.00;-15917.19;5062196;27;51373;-63
2023/01/06 04:14:19;;;;;;;;;0.00;0.00;;;;;-147.17;100.00;-15917.19;5074654;28;51007;-63
2023/01/06 04:16:44;;;;;;;;;0.00;0.00;;;;;-147.17;100.00;-15917.19;5069597;27;51173;-63
2023/01/06 04:19:09;;;;;;;;;1.00;0.00;;;;;-147.17;100.00;-15917.19;5056729;27;51104;-63
2023/01/06 04:21:35;;;;;;;;;0.00;0.00;;;;;-147.17;100.00;-15917.19;5055674;28;51865;-64
2023/01/06 04:24:00;;;;;;;;;0.33;0.33;;;;;-147.17;100.00;-15917.19;5070897;27;51098;-64
2023/01/06 04:26:26;;;;;;;;;0.00;0.00;;;;;-147.17;100.00;-15917.19;5074485;27;51046;-63
2023/01/06 04:28:51;;;;;;;;;0.00;0.00;;;;;-147.17;100.00;-15917.19;5074833;27;50941;-64
2023/01/06 04:31:17;;;;;;;;;0.00;0.00;;;;;-147.17;100.00;-15917.19;5072497;27;51980;-63
2023/01/06 04:33:42;;;;;;;;;0.00;0.00;;;;;-147.17;100.00;-15917.19;5061770;28;51055;-63
2023/01/06 04:36:08;;;;;;;;;0.00;0.00;;;;;-147.17;100.00;-15917.19;5048969;27;50904;-63
2023/01/06 04:38:33;;;;;;;;;0.00;0.00;;;;;-147.17;100.00;-15917.19;5068404;28;51383;-62
2023/01/06 04:40:59;;;;;;;;;0.00;0.00;;;;;-147.17;100.00;-15917.19;5056505;28;51742;-63
2023/01/06 04:43:24;;;;;;;;;0.00;0.00;;;;;-147.17;100.00;-15917.19;5069342;27;51118;-63
2023/01/06 04:45:50;;;;;;;;;0.00;0.00;;;;;-147.17;100.00;-15917.19;5067919;28;51019;-64
2023/01/06 04:48:15;;;;;;;;;0.00;0.00;;;;;-147.17;100.00;-15917.19;5074724;27;51300;-64
2023/01/06 04:50:40;;;;;;;;;0.00;0.00;;;;;-147.17;100.00;-15917.19;5073890;27;51106;-63
2023/01/06 04:53:06;;;;;;;;;0.00;0.00;;;;;-147.17;100.00;-15917.19;5062842;27;51032;-64
2023/01/06 04:55:32;;;;;;;;;0.00;0.00;;;;;-147.17;100.00;-15917.19;5062473;27;51864;-65
2023/01/06 04:57:58;;;;;;;;;0.00;0.00;;;;;-147.17;100.00;-15917.19;5066911;27;51438;-64
2023/01/06 05:00:24;;;;;;;;;0.00;0.00;;;;;-147.17;100.00;-15917.19;5046342;28;54402;-62
2023/01/06 05:02:49;;;;;;;;;0.00;0.00;;;;;-147.17;100.00;-15917.19;5062635;28;51071;-64
2023/01/06 05:05:15;;;;;;;;;0.00;0.00;;;;;-147.17;100.00;-15917.19;5061112;27;51378;-64
2023/01/06 05:07:41;;;;;;;;;0.00;0.00;;;;;-147.17;100.00;-15917.19;5062465;27;50977;-63
2023/01/06 05:10:08;;;;;;;;;0.00;0.00;;;;;-147.17;100.00;-15917.19;5039571;28;51979;-64
2023/01/06 05:12:34;;;;;;;;;0.00;0.00;;;;;-147.17;100.00;-15917.19;5060105;28;51179;-64
2023/01/06 05:15:00;;;;;;;;;0.00;0.00;;;;;-147.17;100.00;-15917.19;5059296;27;51220;-62
2023/01/06 05:17:26;;;;;;;;;0.00;0.00;;;;;-147.17;100.00;-15917.19;5065826;28;51204;-63
2023/01/06 05:19:52;;;;;;;;;0.00;0.00;;;;;-147.17;100.00;-15917.19;5064602;28;51847;-63
2023/01/06 05:22:17;;;;;;;;;1.00;1.00;;;;;-147.17;100.00;-15917.19;5055804;28;51540;-63
2023/01/06 05:24:43;;;;;;;;;0.00;0.00;;;;;-147.17;100.00;-15917.19;5058706;28;51244;-64
2023/01/06 05:27:08;;;;;;;;;2.00;1.00;;;;;-147.17;100.00;-15917.19;5055024;27;51256;-63
2023/01/06 05:29:34;;;;;;;;;0.00;0.00;;;;;-147.17;100.00;-15917.19;5067233;28;51945;-63
2023/01/06 05:32:00;;;;;;;;;1.00;0.67;;;;;-147.17;100.00;-15917.19;5052153;27;51221;-64
2023/01/06 05:34:26;;;;;;;;;0.00;0.00;;;;;-147.17;100.00;-15917.19;5055791;28;51124;-63
2023/01/06 05:36:51;;;;;;;;;0.00;0.00;;;;;-147.17;100.00;-15917.19;5061846;27;51347;-63
2023/01/06 05:39:17;;;;;;;;;0.33;0.00;;;;;-147.17;100.00;-15917.19;5067212;28;51178;-64
2023/01/06 05:41:42;;;;;;;;;0.00;0.00;;;;;-147.17;100.00;-15917.19;5059569;27;51101;-63
2023/01/06 05:44:08;;;;;;;;;0.00;0.00;;;;;-147.17;100.00;-15917.19;5053400;27;51158;-64
2023/01/06 05:46:33;;;;;;;;;0.00;0.00;;;;;-147.17;100.00;-15917.19;5052560;27;50914;-63
2023/01/06 05:48:59;;;;;;;;;1.00;1.00;;;;;-147.17;100.00;-15917.19;5050143;28;51897;-64
2023/01/06 05:51:25;;;;;;;;;0.00;0.00;;;;;-147.17;100.00;-15917.19;5060827;27;51024;-63
2023/01/06 05:53:50;;;;;;;;;0.33;0.33;;;;;-147.17;100.00;-15917.19;5054973;27;51088;-63
2023/01/06 05:56:18;;;;;;;;;0.00;0.00;;;;;-147.17;100.00;-15917.19;5069381;27;51363;-63
2023/01/06 05:58:46;;;;;;;;;0.00;0.00;;;;;-147.17;100.00;-15917.19;5050538;28;51292;-63
2023/01/06 06:01:17;;;;;;;;;1.33;1.33;;;;;-147.17;100.00;-15917.19;5050055;27;51412;-64
2023/01/06 06:03:42;;;;;;;;;1.00;1.00;;;;;-147.17;100.00;-15917.19;5052871;28;51194;-64
2023/01/06 06:06:08;;;;;;;;;0.33;0.33;;;;;-147.17;100.00;-15917.19;5048529;28;51162;-63
2023/01/06 06:08:33;;;;;;;;;0.67;0.00;;;;;-147.17;100.00;-15917.19;5067627;28;51836;-64
2023/01/06 06:11:03;;;;;;;;;0.00;0.00;;;;;-147.17;100.00;-15917.19;5053129;27;51199;-63
2023/01/06 06:13:29;;;;;;;;;0.00;0.00;;;;;-147.17;100.00;-15917.19;5051705;28;51243;-64
2023/01/06 06:16:09;;;;;;;;;1.00;1.00;;;;;-147.17;100.00;-15917.19;5056983;27;51210;-64
2023/01/06 06:18:39;;;;;;;;;1.00;1.00;;;;;-147.17;100.00;-15917.19;5052193;28;51233;-64
2023/01/06 06:21:05;;;;;;;;;0.00;0.00;;;;;-147.17;100.00;-15917.19;5062592;27;51083;-64
2023/01/06 06:23:30;;;;;;;;;0.00;0.00;;;;;-147.17;100.00;-15917.19;5054322;27;51202;-64
2023/01/06 06:25:56;;;;;;;;;0.33;0.00;;;;;-147.17;100.00;-15917.19;5055768;28;51241;-64
2023/01/06 06:28:22;;;;;;;;;0.00;0.00;;;;;-147.17;100.00;-15917.19;5064364;28;51069;-63
2023/01/06 06:30:47;;;;;;;;;0.33;0.33;;;;;-147.17;100.00;-15917.19;5061114;27;51203;-64
2023/01/06 06:33:12;;;;;;;;;0.00;0.00;;;;;-147.17;100.00;-15917.19;5052729;28;51073;-64
2023/01/06 06:35:38;;;;;;;;;0.67;0.00;;;;;-147.17;100.00;-15917.19;5046330;28;51728;-65
2023/01/06 06:38:03;;;;;;;;;1.33;1.00;;;;;-147.17;100.00;-15917.19;5058773;28;51485;-64
2023/01/06 06:40:28;;;;;;;;;0.00;0.00;;;;;-147.17;100.00;-15917.19;5056908;28;51211;-64
2023/01/06 06:42:54;;;;;;;;;2.00;1.00;;;;;-147.17;100.00;-15917.19;5057482;28;51224;-64
2023/01/06 06:45:19;;;;;;;;;0.67;0.33;;;;;-147.17;100.00;-15917.19;5060353;28;51202;-63
2023/01/06 06:47:44;;;;;;;;;1.33;1.33;;;;;-147.17;100.00;-15917.19;5058417;28;51871;-64
2023/01/06 06:50:11;;;;;;;;;2.00;2.00;;;;;-147.17;100.00;-15917.19;5056662;28;51335;-64
2023/01/06 06:52:36;;;;;;;;;1.67;0.67;;;;;-147.17;100.00;-15917.19;5052835;27;51181;-64
2023/01/06 06:55:02;;;;;;;;;1.00;1.00;;;;;-147.17;100.00;-15917.19;5057346;28;51148;-64
2023/01/06 06:57:27;;;;;;;;;2.00;1.00;;;;;-147.17;100.00;-15917.19;5065450;27;51898;-64
2023/01/06 06:59:53;;;;;;;;;26.00;23.75;;;;;-147.17;100.00;-15917.19;5058380;28;51272;-64
2023/01/06 07:02:18;;;;;;;;;0.33;0.33;;;;;-147.17;100.00;-15917.19;5050672;27;51549;-63
2023/01/06 07:04:43;;;;;;;;;1.33;1.33;;;;;-147.17;100.00;-15917.19;5072442;28;51404;-65
2023/01/06 07:07:09;;;;;;;;;1.00;1.00;;;;;-147.17;100.00;-15917.19;5067416;27;52167;-65
2023/01/06 07:09:34;;;;;;;;;1.67;1.00;;;;;-147.17;100.00;-15917.19;5046405;28;50892;-64
2023/01/06 07:11:59;;;;;;;;;1.00;1.00;;;;;-147.17;100.00;-15917.19;5069463;27;51015;-64
2023/01/06 07:14:25;;;;;;;;;66.50;51.25;;;;;-147.17;100.00;-15917.19;5050354;27;51965;-64
2023/01/06 07:16:50;;;;;;;;;4.00;4.00;;;;;-147.17;100.00;-15917.19;5044057;28;52143;-66
2023/01/06 07:19:15;;;;;;;;;2.33;2.33;;;;;-147.17;100.00;-15917.19;5057697;28;51218;-63
2023/01/06 07:21:41;;;;;;;;;3.00;2.00;;;;;-147.17;100.00;-15917.19;5063430;28;51968;-64
2023/01/06 07:24:06;;;;;;;;;2.00;2.00;;;;;-147.17;100.00;-15917.19;5062958;27;51072;-63
2023/01/06 07:26:31;;;;;;;;;4.00;4.00;;;;;-147.17;100.00;-15917.19;5052133;27;52429;-63
2023/01/06 07:28:57;;;;;;;;;5.00;4.00;;;;;-147.17;100.00;-15917.19;5047196;28;51301;-64
2023/01/06 07:31:22;;;;;;;;;3.00;3.00;;;;;-147.17;100.00;-15917.19;5061515;28;51056;-64
2023/01/06 07:33:47;;;;;;;;;4.00;4.00;;;;;-147.17;100.00;-15917.19;5061160;27;51214;-66
2023/01/06 07:36:13;;;;;;;;;6.00;5.00;;;;;-147.17;100.00;-15917.19;5056762;27;52730;-66
2023/01/06 07:38:38;;;;;;;;;2.00;2.00;;;;;-147.17;100.00;-15917.19;5048151;28;51243;-64
2023/01/06 07:41:03;;;;;;;;;3.00;1.00;;;;;-147.17;100.00;-15917.19;5047179;28;51218;-64
2023/01/06 07:43:29;;;;;;;;;3.00;3.00;;;;;-147.17;100.00;-15917.19;5063991;27;51252;-64
2023/01/06 07:45:54;;;;;;;;;3.00;2.00;;;;;-147.17;100.00;-15917.19;5056709;28;51768;-65
2023/01/06 07:48:20;;;;;;;;;3.00;3.00;;;;;-147.17;100.00;-15917.19;5069752;28;50959;-63
2023/01/06 07:50:45;;;;;;;;;5.33;5.00;;;;;-147.17;100.00;-15917.19;5088273;27;51082;-64
2023/01/06 07:53:11;;;;;;;;;4.00;4.00;;;;;-147.17;100.00;-15917.19;5064613;27;50950;-65
2023/01/06 07:55:36;;;;;;;;;6.00;5.00;;;;;-147.17;100.00;-15917.19;5059322;28;51101;-64
2023/01/06 07:58:06;;;;;;;;;5.00;4.00;;;;;-147.17;100.00;-15917.19;5055173;28;51179;-64
2023/01/06 08:00:32;;;;;;;;;3.00;3.00;;;;;-147.17;100.00;-15917.19;5061901;27;51166;-64
2023/01/06 08:02:57;;;;;;;;;3.00;2.00;;;;;-147.17;100.00;-15917.19;5044942;28;51480;-66
2023/01/06 08:05:23;;;;;;;;;2.67;2.00;;;;;-147.17;100.00;-15917.19;5053454;28;51055;-65
2023/01/06 08:07:48;;;;;;;;;5.00;4.00;;;;;-147.17;100.00;-15917.19;5046997;28;51038;-64
2023/01/06 08:10:14;;;;;;;;;2.67;2.00;;;;;-147.17;100.00;-15917.19;5053622;28;51436;-65
2023/01/06 08:12:39;;;;;;;;;2.67;2.00;;;;;-147.17;100.00;-15917.19;5060504;28;51130;-62
2023/01/06 08:15:05;;;;;;;;;2.00;2.00;;;;;-147.17;100.00;-15917.19;5074313;27;51848;-63
2023/01/06 08:17:31;;;;;;;;;2.33;2.00;;;;;-147.17;100.00;-15917.19;5062831;27;51094;-63
2023/01/06 08:19:56;;;;;;;;;2.00;2.00;;;;;-147.17;100.00;-15917.19;5071196;27;51078;-64
2023/01/06 08:22:23;;;;;;;;;4.00;4.00;;;;;-147.17;100.00;-15917.19;5070562;28;51297;-65
2023/01/06 08:24:48;;;;;;;;;2.67;2.00;;;;;-147.17;100.00;-15917.19;5070837;28;50982;-64
2023/01/06 08:27:13;;;;;;;;;5.33;5.33;;;;;-147.17;100.00;-15917.19;5060618;27;51242;-66
2023/01/06 08:29:39;;;;;;;;;3.00;2.67;;;;;-147.17;100.00;-15917.19;5057354;28;51392;-64
2023/01/06 08:32:04;;;;;;;;;2.00;2.00;;;;;-147.17;100.00;-15917.19;5063058;28;51341;-64
2023/01/06 08:34:30;;;;;;;;;3.67;3.67;;;;;-147.17;100.00;-15917.19;5062543;28;50926;-63
2023/01/06 08:36:55;;;;;;;;;5.00;4.33;;;;;-147.17;100.00;-15917.19;5073137;28;50986;-65
2023/01/06 08:39:20;;;;;;;;;4.67;4.67;;;;;-147.17;100.00;-15917.19;5073278;28;51028;-65
2023/01/06 08:41:50;;;;;;;;;4.00;4.00;;;;;-147.17;100.00;-15917.19;5061443;27;51104;-65
2023/01/06 08:44:15;;;;;;;;;5.33;4.00;;;;;-147.17;100.00;-15917.19;5076048;27;51815;-64
2023/01/06 08:46:41;;;;;;;;;3.00;3.00;;;;;-147.17;100.00;-15917.19;5072367;28;51073;-66
2023/01/06 08:49:06;;;;;;;;;5.00;4.00;;;;;-147.17;100.00;-15917.19;5073960;27;50935;-66
2023/01/06 08:51:33;;;;;;;;;24.50;24.50;;;;;-147.17;100.00;-15917.19;5049821;28;52520;-65
2023/01/06 08:53:59;;;;;;;;;39.25;35.25;;;;;-147.17;100.00;-15917.19;5063674;28;52654;-67
2023/01/06 08:56:30;;;;;;;;;2.00;2.00;;;;;-147.17;100.00;-15917.19;5059717;27;51015;-66
2023/01/06 08:59:01;;;;;;;;;3.33;3.33;;;;;-147.17;100.00;-15917.19;5066097;28;51168;-66
2023/01/06 09:01:33;;;;;;;;;3.67;3.00;;;;;-147.17;100.00;-15917.19;5072190;28;51205;-67
2023/01/06 09:04:00;;;;;;;;;2.00;2.00;;;;;-147.17;100.00;-15917.19;5073325;27;51895;-66
2023/01/06 09:06:27;;;;;;;;;6.00;4.67;;;;;-147.17;100.00;-15917.19;5073721;27;51128;-67
2023/01/06 09:08:53;;;;;;;;;3.67;3.00;;;;;-147.17;100.00;-15917.19;5073583;27;51049;-66
2023/01/06 09:11:18;;;;;;;;;3.00;2.33;;;;;-147.17;100.00;-15917.19;5064752;28;51032;-68
2023/01/06 09:13:44;;;;;;;;;2.67;2.00;;;;;-147.17;100.00;-15917.19;5066612;28;51024;-68
2023/01/06 09:16:11;;;;;;;;;3.00;2.00;;;;;-147.17;100.00;-15917.19;5073778;27;50973;-68
2023/01/06 09:18:36;;;;;;;;;2.00;2.00;;;;;-147.17;100.00;-15917.19;5073790;27;51108;-67
2023/01/06 09:21:02;;;;;;;;;5.67;4.00;;;;;-147.17;100.00;-15917.19;5073768;27;51157;-67
2023/01/06 09:23:28;;;;;;;;;3.00;3.00;;;;;-147.17;100.00;-15917.19;5072126;28;51730;-65
2023/01/06 09:25:54;;;;;;;;;3.00;3.00;;;;;-147.17;100.00;-15917.19;5071678;28;51506;-66
2023/01/06 09:28:20;;;;;;;;;9.67;7.00;;;;;-147.17;100.00;-15917.19;5068696;27;51331;-67
2023/01/06 09:30:47;;;;;;;;;4.33;4.33;;;;;-147.17;100.00;-15917.19;5053310;28;51231;-66
2023/01/06 09:33:13;;;;;;;;;4.67;4.67;;;;;-147.17;100.00;-15917.19;5059207;27;52057;-66
2023/01/06 09:35:38;;;;;;;;;4.00;4.00;;;;;-147.17;100.00;-15917.19;5072999;28;51096;-67
2023/01/06 09:38:04;;;;;;;;;6.00;6.00;;;;;-147.17;100.00;-15917.19;5073154;27;51034;-65
2023/01/06 09:40:41;;;;;;;;;4.00;2.00;;;;;-147.17;100.00;-15917.19;5073325;27;51132;-66
2023/01/06 09:43:24;;;;;;;;;11.00;8.33;;;;;-147.17;100.00;-15917.19;5070305;28;51828;-66
2023/01/06 09:45:55;;;;;;;;;7.00;6.25;;;;;-147.17;100.00;-15917.19;5066082;28;51033;-67
2023/01/06 09:48:27;;;;;;;;;5.00;5.00;;;;;-147.17;100.00;-15917.19;5073303;27;50926;-67
2023/01/06 09:50:58;;;;;;;;;4.00;4.00;;;;;-147.17;100.00;-15917.19;5072854;27;51122;-66
2023/01/06 09:54:32;;;;;;;;;4.00;4.00;;;;;-147.17;100.00;-15917.19;5072781;27;52844;-66
2023/01/06 09:57:05;;;;;;;;;4.00;4.00;;;;;-147.17;100.00;-15917.19;5024984;28;51245;-67
2023/01/06 09:59:38;;;;;;;;;3.00;3.00;;;;;-147.17;100.00;-15917.19;5054393;28;50879;-66
2023/01/06 10:02:13;;;;;;;;;3.33;3.33;;;;;-147.17;100.00;-15917.19;5071780;28;50967;-67
2023/01/06 10:04:38;;;;;;;;;3.67;3.67;;;;;-147.17;100.00;-15917.19;5071526;28;51980;-66
2023/01/06 10:07:17;;;;;;;;;6.00;5.00;;;;;-147.17;100.00;-15917.19;5072855;27;51036;-67
2023/01/06 10:09:51;;;;;;;;;3.67;3.67;;;;;-147.17;100.00;-15917.19;5070350;27;50997;-67
2023/01/06 10:12:26;;;;;;;;;2.33;2.33;;;;;-147.17;100.00;-15917.19;5061739;28;51491;-67
2023/01/06 10:15:42;;;;;;;;;6.33;5.33;;;;;-147.17;100.00;-15917.19;5072406;27;51702;-67
2023/01/06 10:18:59;;;;;;;;;6.00;4.00;;;;;-147.17;100.00;-15917.19;5072648;27;50987;-67
2023/01/06 10:21:49;;;;;;;;;4.00;4.00;;;;;-147.17;100.00;-15917.19;5052627;27;51171;-67
2023/01/06 10:24:29;;;;;;;;;6.00;5.67;;;;;-147.17;100.00;-15917.19;5072591;27;50998;-67
2023/01/06 10:27:09;;;;;;;;;4.00;4.00;;;;;-147.17;100.00;-15917.19;5071973;27;51947;-67
2023/01/06 10:29:36;;;;;;;;;5.00;4.00;;;;;-147.17;100.00;-15917.19;5072335;27;51095;-68
2023/01/06 10:32:05;;;;;;;;;8.00;8.00;;;;;-147.17;100.00;-15917.19;5072657;27;51469;-67
2023/01/06 10:34:33;;;;;;;;;4.00;3.00;;;;;-147.17;100.00;-15917.19;5072540;27;50930;-67
2023/01/06 10:37:18;;;;;;;;;4.33;4.00;;;;;-147.17;100.00;-15917.19;5072175;27;50975;-67
2023/01/06 10:39:48;;;;;;;;;7.00;6.00;;;;;-147.17;100.00;-15917.19;5071345;28;50973;-67
2023/01/06 10:45:13;;;;;;;;;7.00;7.00;;;;;-147.17;100.00;-15917.19;5065664;28;51219;-67
2023/01/06 10:47:41;;;;;;;;;6.67;5.67;;;;;-147.17;100.00;-15917.19;5070711;28;51841;-67
2023/01/06 10:50:12;;;;;;;;;5.00;4.67;;;;;-147.17;100.00;-15917.19;5088134;27;50902;-66
2023/01/06 10:52:38;;;;;;;;;4.00;4.00;;;;;-147.17;100.00;-15917.19;5070648;28;50973;-67
2023/01/06 10:55:05;;;;;;;;;4.00;3.33;;;;;-147.17;100.00;-15917.19;5071965;27;50926;-67
2023/01/06 10:57:39;;;;;;;;;6.00;6.00;;;;;-147.17;100.00;-15917.19;5062569;28;51994;-67
2023/01/06 11:00:15;;;;;;;;;8.00;6.67;;;;;-147.17;100.00;-15917.19;5066985;28;51104;-67
2023/01/06 11:02:49;;;;;;;;;5.00;4.00;;;;;-147.17;100.00;-15917.19;5072121;28;50991;-67
2023/01/06 11:05:17;;;;;;;;;5.33;5.33;;;;;-147.17;100.00;-15917.19;5071843;28;51207;-68
2023/01/06 11:07:56;;;;;;;;;7.33;7.00;;;;;-147.17;100.00;-15917.19;5070333;28;52338;-66
2023/01/06 11:10:26;;;;;;;;;4.33;4.33;;;;;-147.17;100.00;-15917.19;5041926;27;51014;-67
2023/01/06 11:12:52;;;;;;;;;4.33;4.33;;;;;-147.17;100.00;-15917.19;5065406;28;51080;-68
2023/01/06 11:15:21;;;;;;;;;4.00;4.00;;;;;-147.17;100.00;-15917.19;5071741;27;51362;-67
2023/01/06 11:17:47;;;;;;;;;15.50;14.50;;;;;-147.17;100.00;-15917.19;5072173;27;51987;-67
2023/01/06 11:20:12;;;;;;;;;3.67;3.67;;;;;-147.17;100.00;-15917.19;5075089;27;51128;-67